Time;durP1;ratioP1;P1;durP2;ratioP2;P2;SDS_P1;SDS_P2;PMS_P1;PMS_P2;Temp;Humidity;BMP_temperature;BMP_pressure;BME280_temperature;BME280_humidity;BME280_pressure;Samples;Min_cycle;Max_cycle;Signal;HPM_P1;HPM_P2
2022/08/18 00:01:49;;;;;;;4.72;3.42;;;;;;;;;;4999627;28;20113;-84
2022/08/18 00:04:15;;;;;;;4.50;3.22;;;;;;;;;;4984225;28;20415;-84
2022/08/18 00:06:41;;;;;;;5.20;3.45;;;;;;;;;;4998522;28;20034;-85
2022/08/18 00:09:08;;;;;;;5.43;3.85;;;;;;;;;;5002514;28;20037;-85
2022/08/18 00:11:40;;;;;;;4.22;3.65;;;;;;;;;;4997029;28;20415;-85
2022/08/18 00:14:06;;;;;;;5.13;3.75;;;;;;;;;;5000333;28;20037;-85
2022/08/18 00:16:31;;;;;;;5.20;3.60;;;;;;;;;;5005192;28;20174;-85
2022/08/18 00:18:57;;;;;;;5.80;3.75;;;;;;;;;;4999127;28;20101;-85
2022/08/18 00:21:22;;;;;;;4.43;3.67;;;;;;;;;;4983652;28;20033;-85
2022/08/18 00:23:48;;;;;;;4.05;3.38;;;;;;;;;;5002417;28;20029;-85
2022/08/18 00:26:13;;;;;;;4.85;3.90;;;;;;;;;;4984768;28;20034;-85
2022/08/18 00:28:39;;;;;;;5.95;3.97;;;;;;;;;;4997040;28;20351;-86
2022/08/18 00:31:05;;;;;;;5.13;3.88;;;;;;;;;;4999401;28;20109;-85
2022/08/18 00:33:31;;;;;;;4.70;3.80;;;;;;;;;;4996776;28;20038;-85
2022/08/18 00:35:56;;;;;;;5.40;4.13;;;;;;;;;;5000523;28;20057;-86
2022/08/18 00:38:22;;;;;;;4.22;3.80;;;;;;;;;;4999269;28;20026;-85
2022/08/18 00:40:50;;;;;;;5.10;4.10;;;;;;;;;;4998201;28;20494;-85
2022/08/18 00:43:28;;;;;;;5.93;4.28;;;;;;;;;;4997749;28;20052;-86
2022/08/18 00:45:53;;;;;;;6.15;3.85;;;;;;;;;;4999109;28;20035;-84
2022/08/18 00:48:19;;;;;;;5.38;4.10;;;;;;;;;;5002974;28;20101;-84
2022/08/18 00:50:52;;;;;;;5.47;4.10;;;;;;;;;;4983414;28;20120;-84
2022/08/18 00:53:20;;;;;;;7.13;4.60;;;;;;;;;;4984482;28;20033;-84
2022/08/18 00:55:48;;;;;;;5.40;4.18;;;;;;;;;;5005339;28;20038;-85
2022/08/18 00:58:28;;;;;;;5.15;4.65;;;;;;;;;;4996641;28;20068;-84
2022/08/18 01:00:54;;;;;;;5.47;4.30;;;;;;;;;;4993671;28;20030;-85
2022/08/18 01:03:21;;;;;;;5.55;4.38;;;;;;;;;;5000616;28;20080;-85
2022/08/18 01:06:01;;;;;;;5.97;4.72;;;;;;;;;;5001256;28;20026;-83
2022/08/18 01:08:26;;;;;;;7.72;4.22;;;;;;;;;;4995530;28;20146;-83
2022/08/18 01:10:53;;;;;;;4.55;4.15;;;;;;;;;;5004614;28;20106;-83
2022/08/18 01:13:19;;;;;;;5.35;4.68;;;;;;;;;;4998727;28;20421;-85
2022/08/18 01:15:45;;;;;;;5.63;4.82;;;;;;;;;;4995743;28;20030;-84
2022/08/18 01:24:11;;;;;;;7.40;5.05;;;;;;;;;;4998078;28;20048;-84
2022/08/18 01:26:48;;;;;;;6.60;5.57;;;;;;;;;;4999527;28;20110;-84
2022/08/18 01:29:16;;;;;;;6.85;5.32;;;;;;;;;;5011321;28;20397;-84
2022/08/18 01:31:48;;;;;;;6.28;5.35;;;;;;;;;;5000043;28;20038;-85
2022/08/18 01:34:15;;;;;;;7.53;5.47;;;;;;;;;;4998844;28;20022;-85
2022/08/18 01:36:41;;;;;;;5.60;5.00;;;;;;;;;;4999905;28;20045;-85
2022/08/18 01:39:10;;;;;;;6.22;4.90;;;;;;;;;;4996647;28;20026;-86
2022/08/18 01:41:36;;;;;;;6.13;5.20;;;;;;;;;;4996221;28;20482;-86
2022/08/18 01:44:03;;;;;;;6.97;5.28;;;;;;;;;;4997005;28;20027;-85
2022/08/18 01:46:32;;;;;;;6.15;4.82;;;;;;;;;;5001164;28;20152;-84
2022/08/18 01:48:59;;;;;;;5.90;4.45;;;;;;;;;;5001687;28;20030;-85
2022/08/18 01:51:26;;;;;;;6.28;5.22;;;;;;;;;;5001521;28;20029;-84
2022/08/18 01:53:52;;;;;;;7.38;4.97;;;;;;;;;;4999660;28;20475;-84
2022/08/18 01:56:18;;;;;;;5.43;4.88;;;;;;;;;;5000372;28;20034;-83
2022/08/18 01:58:44;;;;;;;7.07;5.05;;;;;;;;;;4998873;28;20471;-85
2022/08/18 02:01:11;;;;;;;5.28;4.38;;;;;;;;;;4996381;28;20027;-84
2022/08/18 02:03:43;;;;;;;5.85;4.68;;;;;;;;;;4999246;28;20056;-86
2022/08/18 02:06:11;;;;;;;8.13;5.55;;;;;;;;;;5000340;28;20065;-85
2022/08/18 02:08:37;;;;;;;5.32;4.53;;;;;;;;;;4995153;28;20054;-85
2022/08/18 02:11:03;;;;;;;5.38;4.65;;;;;;;;;;4999846;28;20065;-86
2022/08/18 02:13:29;;;;;;;7.95;5.05;;;;;;;;;;4999808;28;20026;-86
2022/08/18 02:15:55;;;;;;;7.60;5.00;;;;;;;;;;4995175;28;20053;-86
2022/08/18 02:18:24;;;;;;;5.93;5.32;;;;;;;;;;5003570;28;20049;-86
2022/08/18 02:20:49;;;;;;;5.90;4.80;;;;;;;;;;5003571;28;20029;-87
2022/08/18 02:23:16;;;;;;;9.02;5.28;;;;;;;;;;4998395;28;20260;-86
2022/08/18 02:25:42;;;;;;;5.93;5.32;;;;;;;;;;4997124;28;20122;-86
2022/08/18 02:28:08;;;;;;;6.22;5.20;;;;;;;;;;4995491;28;20562;-85
2022/08/18 02:30:36;;;;;;;5.50;5.00;;;;;;;;;;5002523;28;20030;-85
2022/08/18 02:33:06;;;;;;;6.72;5.20;;;;;;;;;;5007680;28;20446;-87
2022/08/18 02:35:31;;;;;;;;;;;;;;;;;;5006114;28;20030;-85
2022/08/18 02:38:04;;;;;;;6.38;4.80;;;;;;;;;;5008978;28;20281;-86
2022/08/18 02:40:33;;;;;;;6.97;5.00;;;;;;;;;;5006326;28;20041;-85
2022/08/18 02:43:05;;;;;;;5.90;4.72;;;;;;;;;;5001569;28;20030;-85
2022/08/18 02:45:31;;;;;;;5.88;4.85;;;;;;;;;;5010439;28;20026;-86
2022/08/18 02:47:56;;;;;;;6.15;5.15;;;;;;;;;;5005476;28;20033;-85
2022/08/18 02:50:22;;;;;;;7.93;5.70;;;;;;;;;;5003919;28;20030;-85
2022/08/18 02:52:48;;;;;;;6.70;5.40;;;;;;;;;;4999796;28;20474;-85
2022/08/18 02:55:14;;;;;;;5.93;5.22;;;;;;;;;;5004658;28;20022;-85
2022/08/18 02:57:46;;;;;;;8.88;4.40;;;;;;;;;;4999596;28;20463;-86
2022/08/18 03:00:18;;;;;;;6.00;4.78;;;;;;;;;;5017089;28;20046;-85
2022/08/18 03:02:46;;;;;;;5.78;4.72;;;;;;;;;;5002763;28;20038;-86
2022/08/18 03:05:11;;;;;;;5.18;4.65;;;;;;;;;;5010162;28;20391;-85
2022/08/18 03:07:36;;;;;;;6.07;4.55;;;;;;;;;;5005371;28;20083;-85
2022/08/18 03:10:02;;;;;;;6.88;4.70;;;;;;;;;;5008379;28;20104;-85
2022/08/18 03:12:29;;;;;;;5.22;4.53;;;;;;;;;;5007273;28;20061;-86
2022/08/18 03:14:54;;;;;;;5.68;4.65;;;;;;;;;;5004171;28;20034;-85
2022/08/18 03:17:19;;;;;;;6.47;5.05;;;;;;;;;;4999942;28;20458;-85
2022/08/18 03:19:45;;;;;;;5.72;4.68;;;;;;;;;;5005398;28;20025;-85
2022/08/18 03:22:11;;;;;;;6.40;5.07;;;;;;;;;;5001417;28;20033;-85
2022/08/18 03:24:36;;;;;;;4.90;4.45;;;;;;;;;;4989322;28;20033;-85
2022/08/18 03:27:06;;;;;;;5.20;4.07;;;;;;;;;;5010966;28;20042;-84
2022/08/18 03:29:33;;;;;;;9.77;4.32;;;;;;;;;;4987681;28;20031;-85
2022/08/18 03:32:03;;;;;;;9.65;5.05;;;;;;;;;;5001807;28;20026;-85
2022/08/18 03:34:29;;;;;;;8.00;4.80;;;;;;;;;;5006784;28;20430;-86
2022/08/18 03:36:54;;;;;;;9.73;4.63;;;;;;;;;;5004022;28;20038;-84
2022/08/18 03:39:22;;;;;;;5.00;4.50;;;;;;;;;;5007827;28;20383;-85
2022/08/18 03:41:49;;;;;;;5.10;4.40;;;;;;;;;;5000476;28;20475;-85
2022/08/18 03:44:15;;;;;;;6.15;4.45;;;;;;;;;;4996407;28;20026;-84
2022/08/18 03:46:43;;;;;;;7.82;5.10;;;;;;;;;;5002347;28;20032;-85
2022/08/18 03:49:09;;;;;;;7.22;4.47;;;;;;;;;;4998299;28;20037;-85
2022/08/18 03:51:35;;;;;;;5.60;4.43;;;;;;;;;;5005562;28;20034;-85
2022/08/18 03:54:03;;;;;;;7.07;4.75;;;;;;;;;;4996201;28;21365;-85
2022/08/18 03:56:32;;;;;;;5.88;4.38;;;;;;;;;;4983201;28;20448;-85
2022/08/18 03:59:06;;;;;;;4.82;4.32;;;;;;;;;;5003539;28;20030;-85
2022/08/18 04:01:37;;;;;;;5.78;4.50;;;;;;;;;;4999273;28;20085;-85
2022/08/18 04:04:05;;;;;;;7.47;4.50;;;;;;;;;;5001367;28;20021;-84
2022/08/18 04:06:33;;;;;;;5.95;4.45;;;;;;;;;;5000929;28;20033;-84
2022/08/18 04:09:00;;;;;;;5.60;4.75;;;;;;;;;;5000577;28;20555;-86
2022/08/18 04:11:27;;;;;;;5.13;3.97;;;;;;;;;;4996147;28;20513;-86
2022/08/18 04:13:56;;;;;;;6.72;4.47;;;;;;;;;;4985170;28;20056;-86
2022/08/18 04:16:23;;;;;;;5.00;4.50;;;;;;;;;;4997210;28;20030;-85
2022/08/18 04:18:48;;;;;;;5.43;4.57;;;;;;;;;;4998024;28;20034;-85
2022/08/18 04:21:14;;;;;;;5.55;4.32;;;;;;;;;;5000447;28;20356;-86
2022/08/18 04:23:40;;;;;;;4.88;4.35;;;;;;;;;;4984695;28;20501;-85
2022/08/18 04:26:07;;;;;;;6.13;5.07;;;;;;;;;;5001963;28;20390;-85
2022/08/18 04:28:33;;;;;;;6.78;4.93;;;;;;;;;;4999677;28;20030;-84
2022/08/18 04:31:04;;;;;;;6.72;4.57;;;;;;;;;;5001888;28;20041;-88
2022/08/18 04:33:29;;;;;;;5.88;4.68;;;;;;;;;;5003054;28;20022;-84
2022/08/18 04:35:55;;;;;;;5.93;5.00;;;;;;;;;;5001056;28;20026;-85
2022/08/18 04:38:22;;;;;;;9.13;5.43;;;;;;;;;;4999156;28;20449;-85
2022/08/18 04:40:48;;;;;;;7.65;5.80;;;;;;;;;;5000700;28;20077;-84
2022/08/18 04:43:14;;;;;;;7.22;5.20;;;;;;;;;;4987206;28;20029;-86
2022/08/18 04:45:49;;;;;;;7.25;5.53;;;;;;;;;;5000397;28;20026;-81
2022/08/18 04:48:15;;;;;;;5.88;4.93;;;;;;;;;;4992811;28;20137;-83
2022/08/18 04:50:41;;;;;;;8.43;6.18;;;;;;;;;;4997321;28;20113;-83
2022/08/18 04:55:53;;;;;;;7.38;5.68;;;;;;;;;;4999968;28;20041;-82
2022/08/18 04:58:20;;;;;;;6.53;5.70;;;;;;;;;;4995314;28;20026;-83
2022/08/18 05:00:46;;;;;;;9.27;6.15;;;;;;;;;;5000316;28;20421;-83
2022/08/18 05:03:12;;;;;;;7.28;6.13;;;;;;;;;;4978417;28;20112;-83
2022/08/18 05:05:38;;;;;;;10.40;6.53;;;;;;;;;;5000326;28;20129;-83
2022/08/18 05:08:04;;;;;;;8.48;6.20;;;;;;;;;;4993545;28;20033;-84
2022/08/18 05:10:30;;;;;;;8.05;5.95;;;;;;;;;;5000539;28;20033;-84
2022/08/18 05:12:56;;;;;;;9.75;6.90;;;;;;;;;;5002032;28;20079;-83
2022/08/18 05:15:22;;;;;;;9.35;7.03;;;;;;;;;;5005752;28;20053;-82
2022/08/18 05:17:47;;;;;;;9.23;7.10;;;;;;;;;;4996463;28;20509;-84
2022/08/18 05:20:13;;;;;;;12.38;7.43;;;;;;;;;;4999621;28;20108;-84
2022/08/18 05:22:40;;;;;;;8.95;7.00;;;;;;;;;;4998995;28;20030;-82
2022/08/18 05:25:07;;;;;;;9.00;7.65;;;;;;;;;;5001539;28;20452;-84
2022/08/18 05:27:35;;;;;;;11.25;7.35;;;;;;;;;;4998154;28;20050;-83
2022/08/18 05:30:02;;;;;;;14.25;9.32;;;;;;;;;;4998185;28;20368;-82
2022/08/18 05:32:30;;;;;;;15.80;7.88;;;;;;;;;;4997643;28;20027;-83
2022/08/18 05:34:56;;;;;;;11.60;8.38;;;;;;;;;;4994995;28;20029;-84
2022/08/18 05:37:34;;;;;;;11.63;6.65;;;;;;;;;;4998904;28;20096;-83
2022/08/18 05:40:02;;;;;;;9.35;7.32;;;;;;;;;;4998204;28;20029;-84
2022/08/18 05:42:32;;;;;;;9.68;7.63;;;;;;;;;;4996266;28;20026;-82
2022/08/18 05:44:59;;;;;;;11.70;7.82;;;;;;;;;;4994322;28;20030;-84
2022/08/18 05:47:30;;;;;;;9.95;7.43;;;;;;;;;;4999534;28;20046;-83
2022/08/18 05:50:01;;;;;;;13.35;7.43;;;;;;;;;;4999332;28;20037;-86
2022/08/18 05:52:51;;;;;;;9.77;7.63;;;;;;;;;;4995417;28;20033;-86
2022/08/18 05:58:28;;;;;;;11.43;7.22;;;;;;;;;;4993301;28;20052;-87
2022/08/18 06:01:01;;;;;;;11.32;7.70;;;;;;;;;;5020395;28;20038;-87
2022/08/18 06:03:35;;;;;;;12.93;8.10;;;;;;;;;;5000421;28;20081;-88
2022/08/18 06:06:26;;;;;;;9.10;7.07;;;;;;;;;;4997224;28;20100;-87
2022/08/18 06:09:22;;;;;;;12.10;8.25;;;;;;;;;;4976960;28;20034;-86
2022/08/18 06:11:52;;;;;;;10.57;7.30;;;;;;;;;;4993401;28;20066;-86
2022/08/18 06:14:24;;;;;;;12.85;8.00;;;;;;;;;;4997931;28;20033;-86
2022/08/18 06:16:57;;;;;;;13.75;8.73;;;;;;;;;;5001305;28;20104;-86
2022/08/18 06:19:48;;;;;;;14.07;7.40;;;;;;;;;;4997909;28;20026;-85
2022/08/18 06:22:39;;;;;;;12.35;7.43;;;;;;;;;;4994643;28;20031;-86
2022/08/18 06:25:32;;;;;;;13.23;7.95;;;;;;;;;;5013538;28;20573;-86
2022/08/18 06:28:14;;;;;;;11.38;7.82;;;;;;;;;;4997029;28;20031;-87
2022/08/18 06:31:10;;;;;;;12.25;8.05;;;;;;;;;;4994961;28;20038;-87
2022/08/18 06:34:41;;;;;;;13.80;7.50;;;;;;;;;;4997284;28;20042;-88
2022/08/18 06:37:27;;;;;;;11.35;8.27;;;;;;;;;;4976010;28;20135;-89
2022/08/18 06:39:53;;;;;;;10.75;8.07;;;;;;;;;;4989438;28;20037;-86
2022/08/18 06:42:32;;;;;;;14.10;7.82;;;;;;;;;;4991571;28;20046;-88
2022/08/18 06:45:10;;;;;;;15.02;7.82;;;;;;;;;;5017775;28;20026;-89
2022/08/18 06:48:13;;;;;;;11.85;8.40;;;;;;;;;;5000040;28;20026;-87
2022/08/18 06:51:00;;;;;;;11.85;7.32;;;;;;;;;;4994996;28;20038;-85
2022/08/18 06:54:12;;;;;;;8.98;7.20;;;;;;;;;;4992698;28;20026;-86
2022/08/18 06:56:58;;;;;;;11.02;8.23;;;;;;;;;;4999747;28;20481;-87
2022/08/18 06:59:58;;;;;;;12.85;7.00;;;;;;;;;;4998056;28;20026;-86
2022/08/18 07:03:06;;;;;;;10.60;7.05;;;;;;;;;;5016708;28;20390;-87
2022/08/18 07:05:35;;;;;;;8.70;7.45;;;;;;;;;;4998001;28;20479;-86
2022/08/18 07:08:41;;;;;;;13.52;7.85;;;;;;;;;;4997383;28;20065;-85
2022/08/18 07:11:26;;;;;;;10.45;7.45;;;;;;;;;;4980848;28;20038;-87
2022/08/18 07:14:14;;;;;;;9.20;7.45;;;;;;;;;;4998894;28;20530;-87
2022/08/18 07:16:40;;;;;;;10.65;7.05;;;;;;;;;;4980311;28;20503;-85
2022/08/18 07:19:10;;;;;;;9.30;6.40;;;;;;;;;;4980796;28;20042;-86
2022/08/18 07:21:39;;;;;;;9.73;6.82;;;;;;;;;;4997391;28;20113;-87
2022/08/18 07:24:32;;;;;;;11.40;6.55;;;;;;;;;;4980690;28;20022;-87
2022/08/18 07:27:17;;;;;;;8.38;6.97;;;;;;;;;;4969484;28;20042;-86
2022/08/18 07:30:20;;;;;;;9.02;6.22;;;;;;;;;;4976818;28;20035;-84
2022/08/18 07:33:23;;;;;;;8.70;6.53;;;;;;;;;;5005528;28;20121;-86
2022/08/18 07:36:04;;;;;;;10.25;6.60;;;;;;;;;;4980979;28;20510;-86
2022/08/18 07:38:44;;;;;;;9.35;5.45;;;;;;;;;;4998261;28;20025;-86
2022/08/18 07:41:19;;;;;;;6.57;5.20;;;;;;;;;;4997941;28;20516;-86
2022/08/18 07:43:51;;;;;;;7.78;4.90;;;;;;;;;;4993797;28;20062;-87
2022/08/18 07:46:28;;;;;;;6.90;5.22;;;;;;;;;;4996648;28;20113;-86
2022/08/18 07:48:55;;;;;;;9.48;5.35;;;;;;;;;;4979399;28;20033;-82
2022/08/18 07:51:44;;;;;;;6.40;5.32;;;;;;;;;;4998790;28;20033;-83
2022/08/18 07:54:40;;;;;;;6.47;4.93;;;;;;;;;;4996671;28;20104;-83
2022/08/18 07:57:09;;;;;;;6.65;4.45;;;;;;;;;;4993893;28;20034;-86
2022/08/18 07:59:43;;;;;;;6.38;4.65;;;;;;;;;;5003367;28;20034;-83
2022/08/18 08:02:15;;;;;;;5.30;4.68;;;;;;;;;;4978966;28;20558;-83
2022/08/18 08:04:51;;;;;;;6.43;4.85;;;;;;;;;;5000680;28;20527;-83
2022/08/18 08:07:23;;;;;;;5.53;4.13;;;;;;;;;;4994010;28;20113;-87
2022/08/18 08:10:22;;;;;;;9.18;4.18;;;;;;;;;;4994867;28;20038;-83
2022/08/18 08:13:06;;;;;;;;;;;;;;;;;;4996420;28;20104;-83
2022/08/18 08:15:42;;;;;;;6.95;4.80;;;;;;;;;;4992550;28;19996;-83
2022/08/18 08:18:17;;;;;;;6.50;4.93;;;;;;;;;;4985671;28;20137;-85
2022/08/18 08:20:50;;;;;;;6.15;4.65;;;;;;;;;;4997579;28;20398;-83
2022/08/18 08:23:39;;;;;;;6.20;4.57;;;;;;;;;;4996708;28;20046;-83
2022/08/18 08:26:23;;;;;;;4.88;4.22;;;;;;;;;;4973459;28;20399;-84
2022/08/18 08:29:13;;;;;;;6.30;4.57;;;;;;;;;;4992195;28;20037;-84
2022/08/18 08:31:48;;;;;;;5.28;4.40;;;;;;;;;;4993380;28;20037;-86
2022/08/18 08:34:42;;;;;;;5.05;3.78;;;;;;;;;;4995511;28;20023;-82
2022/08/18 08:37:14;;;;;;;6.47;3.88;;;;;;;;;;4994472;28;20081;-83
2022/08/18 08:39:54;;;;;;;5.75;3.95;;;;;;;;;;4998478;28;20022;-82
2022/08/18 08:42:40;;;;;;;5.53;4.32;;;;;;;;;;5008159;28;20109;-81
2022/08/18 08:45:22;;;;;;;5.40;3.83;;;;;;;;;;4994822;28;20052;-82
2022/08/18 08:48:05;;;;;;;4.03;3.53;;;;;;;;;;4997175;28;20030;-83
2022/08/18 08:50:37;;;;;;;7.82;4.20;;;;;;;;;;4997716;28;20034;-83
2022/08/18 08:53:21;;;;;;;7.40;4.00;;;;;;;;;;4993331;28;20077;-82
2022/08/18 08:55:52;;;;;;;11.63;4.22;;;;;;;;;;4993454;28;20034;-84
2022/08/18 08:58:48;;;;;;;7.10;4.28;;;;;;;;;;4998207;28;20108;-81
2022/08/18 09:01:28;;;;;;;4.57;4.15;;;;;;;;;;4992273;28;20037;-84
2022/08/18 09:04:17;;;;;;;5.72;4.53;;;;;;;;;;4997368;28;20022;-83
2022/08/18 09:07:01;;;;;;;5.13;4.35;;;;;;;;;;4997244;28;20109;-83
2022/08/18 09:09:54;;;;;;;4.68;3.60;;;;;;;;;;4991659;28;20092;-83
2022/08/18 09:12:27;;;;;;;7.20;4.28;;;;;;;;;;4993706;28;20034;-83
2022/08/18 09:15:05;;;;;;;4.97;3.78;;;;;;;;;;4992990;28;20104;-83
2022/08/18 09:17:33;;;;;;;6.13;3.45;;;;;;;;;;4994813;28;20057;-84
2022/08/18 09:20:39;;;;;;;4.53;3.63;;;;;;;;;;4999756;28;20028;-81
2022/08/18 09:23:12;;;;;;;5.03;3.83;;;;;;;;;;4993463;28;20072;-82
2022/08/18 09:25:40;;;;;;;6.95;4.05;;;;;;;;;;4998080;28;20034;-84
2022/08/18 09:28:11;;;;;;;4.63;3.17;;;;;;;;;;5003415;28;20075;-84
2022/08/18 09:31:04;;;;;;;5.07;3.67;;;;;;;;;;4992190;28;20030;-82
2022/08/18 09:33:32;;;;;;;5.40;3.35;;;;;;;;;;4993016;28;20022;-83
2022/08/18 09:36:11;;;;;;;6.35;3.65;;;;;;;;;;4997290;28;20030;-85
2022/08/18 09:41:44;;;;;;;6.95;3.60;;;;;;;;;;4997033;28;20509;-85
2022/08/18 09:44:13;;;;;;;6.05;3.90;;;;;;;;;;4996094;28;20018;-86
2022/08/18 09:46:41;;;;;;;5.57;3.65;;;;;;;;;;5003190;28;20086;-87
2022/08/18 09:49:22;;;;;;;5.32;3.30;;;;;;;;;;4999605;28;20034;-84
2022/08/18 09:52:11;;;;;;;4.03;3.30;;;;;;;;;;5001557;28;20418;-85
2022/08/18 09:54:51;;;;;;;5.20;2.78;;;;;;;;;;4952086;28;20050;-86
2022/08/18 09:57:23;;;;;;;5.82;2.65;;;;;;;;;;4996436;28;20041;-85
2022/08/18 09:59:48;;;;;;;5.78;3.30;;;;;;;;;;4987656;28;20800;-85
2022/08/18 10:02:30;;;;;;;4.03;3.63;;;;;;;;;;4981358;28;20026;-85
2022/08/18 10:09:34;;;;;;;3.95;3.53;;;;;;;;;;4907707;29;20125;-88
2022/08/18 10:15:58;;;;;;;4.15;3.42;;;;;;;;;;4966164;28;20078;-86
2022/08/18 10:19:01;;;;;;;5.20;3.60;;;;;;;;;;4990469;28;20047;-83
2022/08/18 10:21:48;;;;;;;3.58;3.22;;;;;;;;;;4994683;28;20033;-81
2022/08/18 10:24:18;;;;;;;6.28;3.53;;;;;;;;;;4995591;28;20117;-82
2022/08/18 10:26:43;;;;;;;5.07;3.97;;;;;;;;;;4990650;28;20034;-83
2022/08/18 10:29:30;;;;;;;4.00;3.60;;;;;;;;;;4989169;28;20390;-85
2022/08/18 10:31:56;;;;;;;7.78;3.70;;;;;;;;;;4992669;28;20026;-84
2022/08/18 10:34:54;;;;;;;5.03;4.18;;;;;;;;;;4993804;28;20452;-83
2022/08/18 10:37:57;;;;;;;5.40;3.83;;;;;;;;;;4989215;28;20030;-82
2022/08/18 10:40:23;;;;;;;4.20;3.58;;;;;;;;;;4947569;28;20042;-84
2022/08/18 10:43:07;;;;;;;5.07;3.58;;;;;;;;;;4996185;28;20493;-84
2022/08/18 10:45:48;;;;;;;4.20;3.80;;;;;;;;;;4993726;28;20494;-86
2022/08/18 10:48:33;;;;;;;4.75;3.90;;;;;;;;;;4995836;28;20447;-86
2022/08/18 10:51:10;;;;;;;4.13;3.72;;;;;;;;;;4996561;28;20579;-88
2022/08/18 10:53:57;;;;;;;5.75;3.75;;;;;;;;;;4990543;28;20072;-85
2022/08/18 10:56:34;;;;;;;3.97;3.67;;;;;;;;;;4999999;28;20395;-82
2022/08/18 10:59:16;;;;;;;3.80;3.33;;;;;;;;;;5002223;28;20470;-84
2022/08/18 11:02:03;;;;;;;3.88;3.50;;;;;;;;;;4994374;28;20030;-86
2022/08/18 11:04:36;;;;;;;5.15;4.20;;;;;;;;;;4991418;28;20077;-85
2022/08/18 11:07:04;;;;;;;4.60;3.53;;;;;;;;;;4994377;28;20030;-83
2022/08/18 11:09:30;;;;;;;6.00;3.55;;;;;;;;;;4999439;28;20034;-82
2022/08/18 11:11:59;;;;;;;4.38;3.60;;;;;;;;;;4996509;28;20487;-82
2022/08/18 11:14:41;;;;;;;5.72;3.53;;;;;;;;;;5002711;28;20030;-83
2022/08/18 11:17:20;;;;;;;8.50;3.95;;;;;;;;;;5004540;28;20190;-81
2022/08/18 11:19:53;;;;;;;7.22;4.00;;;;;;;;;;5007893;28;20022;-88
2022/08/18 11:22:24;;;;;;;5.75;3.80;;;;;;;;;;5004286;28;20470;-83
2022/08/18 11:24:51;;;;;;;4.22;3.40;;;;;;;;;;5006523;28;20027;-81
2022/08/18 11:27:26;;;;;;;4.47;3.65;;;;;;;;;;4997858;28;20026;-82
2022/08/18 11:29:52;;;;;;;4.80;3.83;;;;;;;;;;4982868;28;20030;-81
2022/08/18 11:32:31;;;;;;;5.53;3.53;;;;;;;;;;5003228;28;20034;-82
2022/08/18 11:34:56;;;;;;;5.03;3.20;;;;;;;;;;5006774;28;20410;-81
2022/08/18 11:37:30;;;;;;;4.75;3.45;;;;;;;;;;4998821;28;20026;-81
2022/08/18 11:39:59;;;;;;;3.88;3.00;;;;;;;;;;4980282;28;20030;-82
2022/08/18 11:42:34;;;;;;;4.97;3.60;;;;;;;;;;4979816;28;20096;-83
2022/08/18 11:45:07;;;;;;;5.18;3.10;;;;;;;;;;5001495;28;20526;-84
2022/08/18 11:47:36;;;;;;;4.18;3.25;;;;;;;;;;4980269;28;20026;-82
2022/08/18 11:50:11;;;;;;;4.80;3.45;;;;;;;;;;4990963;28;20045;-82
2022/08/18 11:52:49;;;;;;;4.00;3.33;;;;;;;;;;5001456;28;20865;-82
2022/08/18 11:55:32;;;;;;;4.97;3.17;;;;;;;;;;4995008;28;20045;-82
2022/08/18 11:57:58;;;;;;;3.42;3.03;;;;;;;;;;4980204;28;20038;-82
2022/08/18 12:00:45;;;;;;;8.35;3.05;;;;;;;;;;4979296;28;20096;-83
2022/08/18 12:03:20;;;;;;;3.08;2.78;;;;;;;;;;4994834;28;20068;-83
2022/08/18 12:05:51;;;;;;;4.03;3.33;;;;;;;;;;4976318;28;20110;-83
2022/08/18 12:08:32;;;;;;;5.70;3.00;;;;;;;;;;4993981;28;20061;-82
2022/08/18 12:11:17;;;;;;;3.40;3.10;;;;;;;;;;4992909;28;20467;-82
2022/08/18 12:13:55;;;;;;;6.90;3.40;;;;;;;;;;4991253;28;20030;-83
2022/08/18 12:16:42;;;;;;;5.82;3.60;;;;;;;;;;4995616;28;20470;-87
2022/08/18 12:19:10;;;;;;;3.85;3.28;;;;;;;;;;4993743;28;20046;-85
2022/08/18 12:21:42;;;;;;;3.58;3.17;;;;;;;;;;4991563;28;21029;-84
2022/08/18 12:24:17;;;;;;;7.07;3.22;;;;;;;;;;4994635;28;20022;-83
2022/08/18 12:26:47;;;;;;;4.20;3.45;;;;;;;;;;4994796;28;20027;-81
2022/08/18 12:29:14;;;;;;;4.20;3.15;;;;;;;;;;4994193;28;20113;-84
2022/08/18 12:31:39;;;;;;;4.28;3.30;;;;;;;;;;4996578;28;20065;-83
2022/08/18 12:34:04;;;;;;;5.63;3.30;;;;;;;;;;4992241;28;20026;-82
2022/08/18 12:36:30;;;;;;;3.97;3.58;;;;;;;;;;4990923;28;20018;-82
2022/08/18 12:38:56;;;;;;;3.35;3.03;;;;;;;;;;5001089;28;20027;-83
2022/08/18 12:41:21;;;;;;;4.38;3.28;;;;;;;;;;5001402;28;20058;-85
2022/08/18 12:43:52;;;;;;;4.82;3.75;;;;;;;;;;4999237;28;20044;-84
2022/08/18 12:46:17;;;;;;;3.47;3.17;;;;;;;;;;4997043;28;20022;-85
2022/08/18 12:48:42;;;;;;;5.30;3.20;;;;;;;;;;5001384;28;20032;-84
2022/08/18 12:51:08;;;;;;;3.80;3.20;;;;;;;;;;4997687;28;20025;-83
2022/08/18 12:53:33;;;;;;;4.30;3.60;;;;;;;;;;4993994;28;20018;-83
2022/08/18 12:55:59;;;;;;;4.15;3.55;;;;;;;;;;4997730;28;20463;-85
2022/08/18 12:58:26;;;;;;;3.85;3.35;;;;;;;;;;5000758;28;20033;-88
2022/08/18 13:00:51;;;;;;;6.22;3.50;;;;;;;;;;4999192;28;20387;-85
2022/08/18 13:03:18;;;;;;;6.70;3.75;;;;;;;;;;4997795;28;20022;-84
2022/08/18 13:05:43;;;;;;;4.47;3.33;;;;;;;;;;4994082;28;20022;-84
2022/08/18 13:08:18;;;;;;;3.85;3.53;;;;;;;;;;4992059;28;20033;-84
2022/08/18 13:10:46;;;;;;;4.38;3.58;;;;;;;;;;4998616;28;20054;-84
2022/08/18 13:13:16;;;;;;;4.07;3.53;;;;;;;;;;4994850;28;20050;-84
2022/08/18 13:15:43;;;;;;;4.75;3.67;;;;;;;;;;5007479;28;20030;-85
2022/08/18 13:18:08;;;;;;;6.43;4.15;;;;;;;;;;4998679;28;20103;-86
2022/08/18 13:20:35;;;;;;;7.63;3.47;;;;;;;;;;4999003;28;20030;-87
2022/08/18 13:23:01;;;;;;;3.85;3.20;;;;;;;;;;4994348;28;20479;-83
2022/08/18 13:25:26;;;;;;;6.70;3.28;;;;;;;;;;4980508;28;20022;-85
2022/08/18 13:27:51;;;;;;;4.35;3.42;;;;;;;;;;4993115;28;20027;-86
2022/08/18 13:30:18;;;;;;;6.03;3.70;;;;;;;;;;4990632;28;20576;-84
2022/08/18 13:32:43;;;;;;;3.60;3.30;;;;;;;;;;4972572;28;20029;-84
2022/08/18 13:35:10;;;;;;;4.65;3.60;;;;;;;;;;4992536;28;20022;-86
2022/08/18 13:37:35;;;;;;;3.92;3.38;;;;;;;;;;4989927;28;20023;-86
2022/08/18 13:40:02;;;;;;;6.55;3.72;;;;;;;;;;4987308;28;20038;-85
2022/08/18 13:42:28;;;;;;;3.90;3.50;;;;;;;;;;4977842;28;20033;-85
2022/08/18 13:44:57;;;;;;;4.25;3.17;;;;;;;;;;4998567;28;20038;-85
2022/08/18 13:47:22;;;;;;;3.95;3.17;;;;;;;;;;4994949;28;20033;-85
2022/08/18 13:49:48;;;;;;;4.03;3.45;;;;;;;;;;4993846;28;20036;-84
2022/08/18 13:52:14;;;;;;;3.83;3.42;;;;;;;;;;4986536;28;20100;-85
2022/08/18 13:54:39;;;;;;;5.70;3.60;;;;;;;;;;4980317;28;20074;-86
2022/08/18 13:57:05;;;;;;;4.57;3.63;;;;;;;;;;4996367;28;20101;-84
2022/08/18 13:59:32;;;;;;;6.43;3.60;;;;;;;;;;4992945;28;20520;-83
2022/08/18 14:01:59;;;;;;;6.38;3.40;;;;;;;;;;4992795;28;20041;-83
2022/08/18 14:04:25;;;;;;;4.82;3.63;;;;;;;;;;4995456;28;20098;-83
2022/08/18 14:06:52;;;;;;;4.90;3.35;;;;;;;;;;4992499;28;20033;-84
2022/08/18 14:09:17;;;;;;;4.30;3.28;;;;;;;;;;4991308;28;20402;-84
2022/08/18 14:11:43;;;;;;;4.32;3.08;;;;;;;;;;4996635;28;20040;-82
2022/08/18 14:14:09;;;;;;;6.10;3.67;;;;;;;;;;4998148;28;20146;-84
2022/08/18 14:16:34;;;;;;;4.05;3.30;;;;;;;;;;4997532;28;20033;-83
2022/08/18 14:27:26;;;;;;;5.45;3.30;;;;;;;;;;4988427;28;20698;-85
2022/08/18 14:29:51;;;;;;;4.10;3.70;;;;;;;;;;4993344;28;20406;-83
2022/08/18 14:32:19;;;;;;;3.50;3.20;;;;;;;;;;4992067;28;20034;-82
2022/08/18 14:34:44;;;;;;;4.40;3.55;;;;;;;;;;4990057;28;20033;-85
2022/08/18 14:37:10;;;;;;;3.50;3.20;;;;;;;;;;4990959;28;20463;-84
2022/08/18 14:39:36;;;;;;;3.33;3.00;;;;;;;;;;4991457;28;20034;-85
2022/08/18 14:42:03;;;;;;;4.82;3.40;;;;;;;;;;4998498;28;20061;-83
2022/08/18 14:44:29;;;;;;;3.58;3.22;;;;;;;;;;4990548;28;20033;-83
2022/08/18 14:46:56;;;;;;;7.32;3.60;;;;;;;;;;4990808;28;20030;-83
2022/08/18 14:49:22;;;;;;;3.92;3.38;;;;;;;;;;4990608;28;20387;-84
2022/08/18 14:51:48;;;;;;;4.55;3.45;;;;;;;;;;4979443;28;20038;-85
2022/08/18 14:54:13;;;;;;;3.78;3.30;;;;;;;;;;4997545;28;20026;-85
2022/08/18 14:56:39;;;;;;;5.32;3.90;;;;;;;;;;4978033;28;20061;-83
2022/08/18 14:59:06;;;;;;;3.50;3.08;;;;;;;;;;4999940;28;20022;-83
2022/08/18 15:01:35;;;;;;;5.03;3.33;;;;;;;;;;4993758;28;20022;-83
2022/08/18 15:04:01;;;;;;;4.03;3.60;;;;;;;;;;4998855;28;20045;-83
2022/08/18 15:06:27;;;;;;;4.53;3.20;;;;;;;;;;4996942;28;20022;-84
2022/08/18 15:08:53;;;;;;;5.82;3.67;;;;;;;;;;4996663;28;20713;-83
2022/08/18 15:11:18;;;;;;;4.95;4.35;;;;;;;;;;4990542;28;20030;-82
2022/08/18 15:13:45;;;;;;;4.68;3.65;;;;;;;;;;4993507;28;20494;-84
2022/08/18 15:16:14;;;;;;;3.90;3.33;;;;;;;;;;4991297;28;20045;-84
2022/08/18 15:18:42;;;;;;;4.28;3.80;;;;;;;;;;4996795;28;20057;-85
2022/08/18 15:26:37;;;;;;;5.35;3.97;;;;;;;;;;4997986;28;20028;-85
2022/08/18 15:29:06;;;;;;;4.70;4.28;;;;;;;;;;4998764;28;20040;-84
2022/08/18 15:31:34;;;;;;;;;;;;;;;;;;4992275;28;20394;-87
2022/08/18 15:34:00;;;;;;;4.35;3.83;;;;;;;;;;4979087;28;19921;-83
2022/08/18 15:36:26;;;;;;;4.50;4.07;;;;;;;;;;4994770;28;20474;-84
2022/08/18 15:38:52;;;;;;;6.93;4.28;;;;;;;;;;5003482;28;20033;-83
2022/08/18 15:41:43;;;;;;;4.47;4.07;;;;;;;;;;5004851;28;20034;-83
2022/08/18 15:44:10;;;;;;;4.10;3.45;;;;;;;;;;5002896;28;20014;-85
2022/08/18 15:46:37;;;;;;;4.75;4.13;;;;;;;;;;5000948;28;20415;-86
2022/08/18 15:49:06;;;;;;;4.00;3.55;;;;;;;;;;4998917;28;20034;-87
2022/08/18 15:51:36;;;;;;;6.32;3.97;;;;;;;;;;4994834;28;20082;-86